createdAt,value
2018-07-22T00:00:44.514Z,20.70
2018-07-22T00:04:17.772Z,20.70
2018-07-22T00:07:51.040Z,20.70
2018-07-22T00:11:24.266Z,20.70
2018-07-22T00:18:30.525Z,20.70
2018-07-22T00:22:03.876Z,20.80
2018-07-22T00:25:37.156Z,20.70
2018-07-22T00:29:10.427Z,20.70
2018-07-22T00:32:43.686Z,20.70
2018-07-22T00:36:16.936Z,20.70
2018-07-22T00:39:50.190Z,20.60
2018-07-22T00:43:23.446Z,20.60
2018-07-22T00:46:56.696Z,20.60
2018-07-22T00:50:29.936Z,20.60
2018-07-22T00:54:03.200Z,20.60
2018-07-22T00:57:36.466Z,20.60
2018-07-22T01:08:15.739Z,20.60
2018-07-22T01:26:00.962Z,20.50
2018-07-22T01:29:34.247Z,20.50
2018-07-22T01:33:07.509Z,20.50
2018-07-22T01:36:40.760Z,20.50
2018-07-22T01:40:13.986Z,20.50
2018-07-22T01:43:47.246Z,20.50
2018-07-22T01:47:20.496Z,20.40
2018-07-22T01:50:53.737Z,20.40
2018-07-22T01:54:26.993Z,20.40
2018-07-22T01:58:00.231Z,20.30
2018-07-22T02:01:33.499Z,20.30
2018-07-22T02:05:06.763Z,20.20
2018-07-22T02:08:40.008Z,20.20
2018-07-22T02:12:13.248Z,20.30
2018-07-22T02:15:46.505Z,20.40
2018-07-22T02:19:19.752Z,20.30
2018-07-22T02:22:53.017Z,20.30
2018-07-22T02:29:59.309Z,20.30
2018-07-22T02:37:05.566Z,20.30
2018-07-22T02:40:38.800Z,20.30
2018-07-22T02:51:18.080Z,20.20
2018-07-22T02:54:51.336Z,20.20
2018-07-22T02:58:24.589Z,20.20
2018-07-22T03:01:57.848Z,20.20
2018-07-22T03:05:31.100Z,20.20
2018-07-22T03:09:06.060Z,20.20
2018-07-22T03:12:39.304Z,20.10
2018-07-22T03:16:12.544Z,20.10
2018-07-22T03:19:45.782Z,20.00
2018-07-22T03:23:19.042Z,20.00
2018-07-22T03:30:25.288Z,20.00
2018-07-22T03:33:58.549Z,20.00
2018-07-22T03:37:31.805Z,20.00
2018-07-22T03:41:05.064Z,19.90
2018-07-22T03:44:38.308Z,19.90
2018-07-22T03:48:11.564Z,19.90
2018-07-22T03:51:44.802Z,19.90
2018-07-22T03:55:18.052Z,19.90
2018-07-22T03:58:51.308Z,19.90
2018-07-22T04:02:24.572Z,20.00
2018-07-22T04:05:57.834Z,20.00
2018-07-22T04:13:04.096Z,20.00
2018-07-22T04:16:37.341Z,20.00
2018-07-22T04:20:10.584Z,20.10
2018-07-22T04:23:43.884Z,20.20
2018-07-22T04:27:17.168Z,20.20
2018-07-22T04:30:50.414Z,20.30
2018-07-22T04:34:23.661Z,20.30
2018-07-22T04:37:56.935Z,20.30
2018-07-22T04:45:03.185Z,20.40
2018-07-22T04:48:36.436Z,20.40
2018-07-22T04:52:09.684Z,20.40
2018-07-22T04:55:42.945Z,20.40
2018-07-22T04:59:16.216Z,20.50
2018-07-22T05:06:22.493Z,20.50
2018-07-22T05:09:55.733Z,20.50
2018-07-22T05:13:28.979Z,20.50
2018-07-22T05:17:02.245Z,20.60
2018-07-22T05:20:35.477Z,20.60
2018-07-22T05:24:08.771Z,20.60
2018-07-22T05:27:42.048Z,20.60
2018-07-22T05:31:15.279Z,20.60
2018-07-22T05:34:48.577Z,20.60
2018-07-22T05:38:21.820Z,20.60
2018-07-22T05:41:55.095Z,20.60
2018-07-22T05:45:28.654Z,20.50
2018-07-22T05:49:01.920Z,20.60
2018-07-22T05:52:35.311Z,20.60
2018-07-22T05:56:08.540Z,20.60
2018-07-22T05:59:41.804Z,20.60
2018-07-22T06:03:15.114Z,20.70
2018-07-22T06:06:48.340Z,20.70
2018-07-22T06:10:21.620Z,20.70
2018-07-22T06:21:00.927Z,20.70
2018-07-22T06:24:34.201Z,20.70
2018-07-22T06:28:07.433Z,20.80
2018-07-22T06:31:40.684Z,20.80
2018-07-22T06:35:14.009Z,20.80
2018-07-22T06:38:47.284Z,20.80
2018-07-22T06:42:20.556Z,20.90
2018-07-22T06:45:53.811Z,20.90
2018-07-22T06:49:27.056Z,20.90
2018-07-22T06:53:00.397Z,20.80
2018-07-22T06:56:33.711Z,20.70
2018-07-22T07:03:40.068Z,20.50
2018-07-22T07:07:13.320Z,20.40
2018-07-22T07:10:46.619Z,20.40
2018-07-22T07:24:59.396Z,20.10
2018-07-22T07:28:32.717Z,20.10
2018-07-22T07:39:13.239Z,20.20
2018-07-22T07:46:19.477Z,20.20
2018-07-22T07:49:52.732Z,20.20
2018-07-22T07:56:59.018Z,20.30
2018-07-22T08:00:32.316Z,20.40
2018-07-22T08:04:05.608Z,20.40
2018-07-22T08:07:38.852Z,20.50
2018-07-22T08:11:12.099Z,20.60
2018-07-22T08:14:45.348Z,20.50
2018-07-22T08:18:18.612Z,20.50
2018-07-22T08:21:51.973Z,20.50
2018-07-22T08:25:25.175Z,20.50
2018-07-22T08:29:34.301Z,20.50
2018-07-22T08:33:07.555Z,20.50
2018-07-22T08:36:40.804Z,20.50
2018-07-22T08:40:14.081Z,20.40
2018-07-22T08:43:47.332Z,20.50
2018-07-22T08:47:20.562Z,20.70
2018-07-22T08:50:53.829Z,20.80
2018-07-22T08:54:27.077Z,20.90
2018-07-22T08:58:00.329Z,21.00
2018-07-22T09:01:33.680Z,21.10
2018-07-22T09:05:07.020Z,21.20
2018-07-22T09:08:40.296Z,21.10
2018-07-22T09:12:13.569Z,21.10
2018-07-22T09:15:46.813Z,21.00
2018-07-22T09:19:20.074Z,21.00
2018-07-22T09:22:53.334Z,21.10
2018-07-22T09:26:26.592Z,21.20
2018-07-22T09:29:59.850Z,21.20
2018-07-22T09:33:33.096Z,21.20
2018-07-22T09:37:06.347Z,21.20
2018-07-22T09:40:39.603Z,21.20
2018-07-22T09:44:12.853Z,21.20
2018-07-22T09:47:46.177Z,21.40
2018-07-22T09:54:52.441Z,21.50
2018-07-22T09:58:25.729Z,21.60
2018-07-22T10:01:58.968Z,21.60
2018-07-22T10:05:32.728Z,21.60
2018-07-22T10:09:08.338Z,21.70
2018-07-22T10:12:41.600Z,21.90
2018-07-22T10:16:15.089Z,22.00
2018-07-22T10:19:48.324Z,22.00
2018-07-22T10:23:21.612Z,22.10
2018-07-22T10:26:54.845Z,22.20
2018-07-22T10:30:28.110Z,22.20
2018-07-22T10:34:01.492Z,22.20
2018-07-22T10:37:34.737Z,22.20
2018-07-22T10:41:08.036Z,22.30
2018-07-22T10:48:14.376Z,22.60
2018-07-22T10:51:47.648Z,22.60
2018-07-22T10:55:20.908Z,22.60
2018-07-22T10:58:54.141Z,22.60
2018-07-22T11:02:27.514Z,22.60
2018-07-22T11:06:00.748Z,22.70
2018-07-22T11:09:34.005Z,22.70
2018-07-22T11:13:07.270Z,22.70
2018-07-22T11:16:40.531Z,22.80
2018-07-22T11:20:13.776Z,22.70
2018-07-22T11:23:47.061Z,22.70
2018-07-22T11:27:20.316Z,22.80
2018-07-22T11:30:53.576Z,22.90
2018-07-22T11:34:26.836Z,23.00
2018-07-22T11:38:00.148Z,23.20
2018-07-22T11:41:33.405Z,23.40
2018-07-22T11:45:06.653Z,23.60
2018-07-22T11:48:39.931Z,23.70
2018-07-22T11:52:13.196Z,23.80
2018-07-22T11:55:46.445Z,24.00
2018-07-22T11:59:19.708Z,24.30
2018-07-22T12:02:52.956Z,24.40
2018-07-22T12:06:26.240Z,24.50
2018-07-22T12:09:59.485Z,24.60
2018-07-22T12:13:32.728Z,24.70
2018-07-22T12:17:06.011Z,24.80
2018-07-22T12:20:39.288Z,24.90
2018-07-22T12:24:12.652Z,25.00
2018-07-22T12:27:45.914Z,24.90
2018-07-22T12:31:19.559Z,24.90
2018-07-22T12:41:58.962Z,24.80
2018-07-22T12:45:32.221Z,24.70
2018-07-22T12:49:05.568Z,24.70
2018-07-22T12:52:38.839Z,24.80
2018-07-22T12:56:12.082Z,24.80
2018-07-22T12:59:45.336Z,24.80
2018-07-22T13:03:18.634Z,24.80
2018-07-22T13:06:51.921Z,24.80
2018-07-22T13:10:25.572Z,24.80
2018-07-22T13:13:58.866Z,24.80
2018-07-22T13:21:05.133Z,24.90
2018-07-22T13:24:38.501Z,24.90
2018-07-22T13:28:11.891Z,25.00
2018-07-22T13:31:45.126Z,25.10
2018-07-22T13:35:18.400Z,25.20
2018-07-22T13:38:51.658Z,25.20
2018-07-22T13:42:24.916Z,25.20
2018-07-22T13:45:58.202Z,25.20
2018-07-22T13:49:31.445Z,25.20
2018-07-22T13:53:04.825Z,25.30
2018-07-22T13:56:38.104Z,25.30
2018-07-22T14:00:11.346Z,25.30
2018-07-22T14:03:44.638Z,25.20
2018-07-22T14:07:17.976Z,25.30
2018-07-22T14:10:51.217Z,25.30
2018-07-22T14:14:24.455Z,25.30
2018-07-22T14:17:58.147Z,25.50
2018-07-22T14:21:31.443Z,25.50
2018-07-22T14:25:04.694Z,25.60
2018-07-22T14:28:39.739Z,25.60
2018-07-22T14:32:13.645Z,25.60
2018-07-22T14:35:46.878Z,25.50
2018-07-22T14:39:20.137Z,25.40
2018-07-22T14:46:26.392Z,25.40
2018-07-22T14:49:59.669Z,25.40
2018-07-22T14:53:32.973Z,25.30
2018-07-22T14:57:06.377Z,25.40
2018-07-22T15:00:39.608Z,25.40
2018-07-22T15:04:12.920Z,25.40
2018-07-22T15:07:46.178Z,25.50
2018-07-22T15:11:19.416Z,25.50
2018-07-22T15:18:31.276Z,25.40
2018-07-22T15:22:04.598Z,25.40
2018-07-22T15:25:37.841Z,25.40
2018-07-22T15:29:11.173Z,25.40
2018-07-22T15:32:44.384Z,25.40
2018-07-22T15:36:17.832Z,25.40
2018-07-22T15:39:51.096Z,25.30
2018-07-22T15:43:24.360Z,25.30
2018-07-22T15:46:57.588Z,25.20
2018-07-22T15:50:30.829Z,25.20
2018-07-22T15:54:04.093Z,25.30
2018-07-22T15:57:37.385Z,25.40
2018-07-22T16:01:10.673Z,25.40
2018-07-22T16:04:43.921Z,25.30
2018-07-22T16:08:17.176Z,25.30
2018-07-22T16:15:23.448Z,25.20
2018-07-22T16:18:56.743Z,25.20
2018-07-22T16:22:30.068Z,25.20
2018-07-22T16:26:03.352Z,25.20
2018-07-22T16:29:36.674Z,25.20
2018-07-22T16:33:09.960Z,25.10
2018-07-22T16:36:43.279Z,25.10
2018-07-22T16:40:16.545Z,25.10
2018-07-22T16:43:49.804Z,25.10
2018-07-22T16:47:23.307Z,25.10
2018-07-22T16:50:56.620Z,25.00
2018-07-22T16:54:29.884Z,24.90
2018-07-22T16:58:03.134Z,24.80
2018-07-22T17:01:36.407Z,24.80
2018-07-22T17:05:09.660Z,24.80
2018-07-22T17:08:42.927Z,24.70
2018-07-22T17:12:16.211Z,24.60
2018-07-22T17:15:49.598Z,24.50
2018-07-22T17:19:22.944Z,24.40
2018-07-22T17:22:56.212Z,24.40
2018-07-22T17:26:29.516Z,24.40
2018-07-22T17:30:02.785Z,24.30
2018-07-22T17:37:11.815Z,24.20
2018-07-22T17:40:45.062Z,24.10
2018-07-22T17:44:18.295Z,24.10
2018-07-22T17:47:51.616Z,24.10
2018-07-22T17:51:24.957Z,24.10
2018-07-22T17:54:58.272Z,24.00
2018-07-22T17:58:31.616Z,24.00
2018-07-22T18:02:04.875Z,23.90
2018-07-22T18:05:38.103Z,23.90
2018-07-22T18:09:11.348Z,23.80
2018-07-22T18:12:44.604Z,23.80
2018-07-22T18:16:17.940Z,23.70
2018-07-22T18:19:51.229Z,23.70
2018-07-22T18:23:24.543Z,23.70
2018-07-22T18:26:58.230Z,23.60
2018-07-22T18:30:32.049Z,23.60
2018-07-22T18:34:05.275Z,23.60
2018-07-22T18:41:11.539Z,23.40
2018-07-22T18:44:44.779Z,23.40
2018-07-22T18:51:51.059Z,23.30
2018-07-22T18:55:25.128Z,23.30
2018-07-22T18:58:58.535Z,23.20
2018-07-22T19:02:31.774Z,23.20
2018-07-22T19:06:05.037Z,23.20
2018-07-22T19:09:38.295Z,23.20
2018-07-22T19:13:11.581Z,23.20
2018-07-22T19:16:44.803Z,23.20
2018-07-22T19:27:24.043Z,23.00
2018-07-22T19:30:57.292Z,22.90
2018-07-22T19:34:30.652Z,22.90
2018-07-22T19:38:03.913Z,22.80
2018-07-22T19:41:37.367Z,22.80
2018-07-22T19:45:10.724Z,22.80
2018-07-22T19:48:44.009Z,22.70
2018-07-22T19:52:17.248Z,22.70
2018-07-22T19:55:50.544Z,22.70
2018-07-22T19:59:23.813Z,22.70
2018-07-22T20:02:57.127Z,22.70
2018-07-22T20:10:03.348Z,22.70
2018-07-22T20:13:36.615Z,22.60
2018-07-22T20:17:09.858Z,22.70
2018-07-22T20:20:43.707Z,22.60
2018-07-22T20:24:17.041Z,22.60
2018-07-22T20:27:50.220Z,22.60
2018-07-22T20:31:23.483Z,22.50
2018-07-22T20:34:56.740Z,22.60
2018-07-22T20:38:29.995Z,22.60
2018-07-22T20:42:03.225Z,22.60
2018-07-22T20:45:36.460Z,22.60
2018-07-22T20:49:09.704Z,22.60
2018-07-22T20:52:42.968Z,22.50
2018-07-22T20:56:16.201Z,22.50
2018-07-22T20:59:49.456Z,22.40
2018-07-22T21:03:22.968Z,22.30
2018-07-22T21:06:56.192Z,22.30
2018-07-22T21:10:29.460Z,22.30
2018-07-22T21:14:02.712Z,22.30
2018-07-22T21:17:36.133Z,22.30
2018-07-22T21:21:09.372Z,22.30
2018-07-22T21:24:42.624Z,22.30
2018-07-22T21:31:48.872Z,22.20
2018-07-22T21:35:22.116Z,22.10
2018-07-22T21:38:55.335Z,22.10
2018-07-22T21:42:28.807Z,22.10
2018-07-22T21:49:35.048Z,22.00
2018-07-22T21:53:08.320Z,22.00
2018-07-22T21:56:41.555Z,22.00
2018-07-22T22:00:34.687Z,21.90
2018-07-22T22:04:07.956Z,22.00
2018-07-22T22:11:14.179Z,21.90
2018-07-22T22:14:47.424Z,21.90
2018-07-22T22:18:20.681Z,21.80
2018-07-22T22:21:53.927Z,21.70
2018-07-22T22:25:27.169Z,21.70
2018-07-22T22:29:00.411Z,21.70
2018-07-22T22:32:33.690Z,21.60
2018-07-22T22:36:06.938Z,21.60
2018-07-22T22:39:40.185Z,21.60
2018-07-22T22:43:13.426Z,21.60
2018-07-22T22:46:46.658Z,21.60
2018-07-22T22:50:19.911Z,21.60
2018-07-22T22:53:53.148Z,21.60
2018-07-22T23:00:59.620Z,21.60
2018-07-22T23:04:32.874Z,21.60
2018-07-22T23:08:06.110Z,21.60
2018-07-22T23:11:39.768Z,21.60
2018-07-22T23:18:45.987Z,21.60
2018-07-22T23:22:19.219Z,21.50
2018-07-22T23:25:52.458Z,21.40
2018-07-22T23:32:58.725Z,21.40
2018-07-22T23:36:31.944Z,21.40
2018-07-22T23:40:05.180Z,21.40
2018-07-22T23:43:38.571Z,21.40
2018-07-22T23:47:11.793Z,21.30
2018-07-22T23:50:45.020Z,21.30
2018-07-22T23:54:18.291Z,21.30
2018-07-22T23:57:51.524Z,21.30
